RYR39RJ LPPR-LEMD
Flight info
| Callsign | RYR39RJ |
|---|---|
| Flight time | 0h 46m |
| Altitude | 28000 |
| Route | BELDU UL155 ADORO L155 ZMR |
| Aircraft | B738/M-SDE2E3FGHIRWXY/LB1 |
Departure
| Time | 2026-05-04 10:41 |
|---|---|
| Airport | Francisco de Sá Carneiro Airport (LPPR) |
Arrival
| Time | 2026-05-04 11:27 |
|---|---|
| Airport | Adolfo Suárez Madrid–Barajas Airport (LEMD) |
| Time | Latitude | Longitude | Altitude | Speed | Heading |
|---|---|---|---|---|---|
| 2026-05-04 10:20 | 41.23831 | -8.67383 | 244 ft | 0 kts | 78° |
| 2026-05-04 10:34 | 41.23830 | -8.67387 | 243 ft | 3 kts | 78° |
| 2026-05-04 10:34 | 41.23824 | -8.67421 | 242 ft | 4 kts | 78° |
| 2026-05-04 10:35 | 41.23820 | -8.67452 | 240 ft | 4 kts | 84° |
| 2026-05-04 10:35 | 41.23822 | -8.67483 | 238 ft | 5 kts | 136° |
| 2026-05-04 10:35 | 41.23844 | -8.67493 | 237 ft | 4 kts | 186° |
| 2026-05-04 10:35 | 41.23870 | -8.67489 | 238 ft | 4 kts | 177° |
| 2026-05-04 10:36 | 41.23878 | -8.67489 | 238 ft | 1 kts | 169° |
| 2026-05-04 10:39 | 41.23626 | -8.67514 | 235 ft | 14 kts | 259° |
| 2026-05-04 10:39 | 41.23611 | -8.67620 | 232 ft | 10 kts | 258° |
| 2026-05-04 10:39 | 41.23602 | -8.67683 | 232 ft | 0 kts | 260° |
| 2026-05-04 10:40 | 41.23600 | -8.67694 | 233 ft | 7 kts | 259° |
| 2026-05-04 10:40 | 41.23612 | -8.67798 | 232 ft | 16 kts | 311° |
| 2026-05-04 10:40 | 41.23903 | -8.67887 | 221 ft | 86 kts | 349° |
| 2026-05-04 10:41 | 41.24766 | -8.68124 | 251 ft | 160 kts | 349° |
| 2026-05-04 10:41 | 41.25949 | -8.68368 | 1010 ft | 184 kts | 353° |
| 2026-05-04 10:41 | 41.27301 | -8.68544 | 1934 ft | 198 kts | 352° |
| 2026-05-04 10:41 | 41.28646 | -8.68841 | 2994 ft | 202 kts | 345° |
| 2026-05-04 10:42 | 41.30090 | -8.69323 | 3513 ft | 222 kts | 345° |
| 2026-05-04 10:42 | 41.31609 | -8.69818 | 3939 ft | 235 kts | 346° |
| 2026-05-04 10:42 | 41.33284 | -8.70328 | 4260 ft | 256 kts | 347° |
| 2026-05-04 10:42 | 41.35068 | -8.70418 | 4994 ft | 263 kts | 14° |
| 2026-05-04 10:43 | 41.36626 | -8.69156 | 5834 ft | 268 kts | 46° |
| 2026-05-04 10:44 | 41.37597 | -8.50905 | 10442 ft | 316 kts | 91° |
| 2026-05-04 10:45 | 41.37523 | -8.47884 | 10629 ft | 336 kts | 91° |
| 2026-05-04 10:45 | 41.37452 | -8.44725 | 11092 ft | 346 kts | 91° |
| 2026-05-04 10:45 | 41.37381 | -8.41489 | 11707 ft | 351 kts | 91° |
| 2026-05-04 10:45 | 41.37310 | -8.38229 | 12414 ft | 354 kts | 91° |
| 2026-05-04 10:46 | 41.37239 | -8.34935 | 13129 ft | 359 kts | 91° |
| 2026-05-04 10:46 | 41.37162 | -8.31577 | 13914 ft | 366 kts | 92° |
| 2026-05-04 10:46 | 41.37065 | -8.28175 | 14673 ft | 369 kts | 91° |
| 2026-05-04 10:46 | 41.36997 | -8.24781 | 15376 ft | 374 kts | 91° |
| 2026-05-04 10:47 | 41.36930 | -8.21303 | 16003 ft | 379 kts | 91° |
| 2026-05-04 10:47 | 41.36860 | -8.17777 | 16625 ft | 384 kts | 91° |
| 2026-05-04 10:47 | 41.36783 | -8.14197 | 17257 ft | 389 kts | 91° |
| 2026-05-04 10:47 | 41.36702 | -8.10576 | 17885 ft | 393 kts | 91° |
| 2026-05-04 10:49 | 41.36065 | -7.84232 | 21774 ft | 421 kts | 92° |
| 2026-05-04 10:49 | 41.35965 | -7.80325 | 22306 ft | 425 kts | 92° |
| 2026-05-04 10:50 | 41.35938 | -7.76378 | 22816 ft | 428 kts | 86° |
| 2026-05-04 10:51 | 41.38465 | -7.48544 | 26481 ft | 432 kts | 83° |
| 2026-05-04 10:52 | 41.38808 | -7.44556 | 26976 ft | 433 kts | 83° |
| 2026-05-04 10:52 | 41.39149 | -7.40572 | 27512 ft | 433 kts | 83° |
| 2026-05-04 10:52 | 41.39488 | -7.36595 | 28026 ft | 433 kts | 83° |
| 2026-05-04 10:54 | 41.42169 | -7.04791 | 28038 ft | 431 kts | 83° |
| 2026-05-04 10:56 | 41.44755 | -6.73157 | 28022 ft | 428 kts | 83° |
| 2026-05-04 10:57 | 41.45386 | -6.65282 | 28022 ft | 427 kts | 83° |
| 2026-05-04 10:57 | 41.46009 | -6.57426 | 28028 ft | 426 kts | 84° |
| 2026-05-04 10:58 | 41.46623 | -6.49620 | 28023 ft | 427 kts | 83° |
| 2026-05-04 10:58 | 41.47239 | -6.41723 | 28023 ft | 428 kts | 83° |
| 2026-05-04 10:59 | 41.47849 | -6.33844 | 28017 ft | 426 kts | 83° |
| 2026-05-04 10:59 | 41.48448 | -6.26004 | 28017 ft | 425 kts | 83° |
| 2026-05-04 11:00 | 41.49038 | -6.18159 | 28006 ft | 425 kts | 83° |
| 2026-05-04 11:02 | 41.51358 | -5.86810 | 28002 ft | 424 kts | 83° |
| 2026-05-04 11:05 | 41.42592 | -5.28266 | 27165 ft | 452 kts | 113° |
| 2026-05-04 11:06 | 41.41451 | -5.24367 | 26783 ft | 452 kts | 113° |
| 2026-05-04 11:06 | 41.40310 | -5.20470 | 26382 ft | 451 kts | 113° |
| 2026-05-04 11:06 | 41.39170 | -5.16585 | 25985 ft | 450 kts | 113° |
| 2026-05-04 11:06 | 41.38027 | -5.12694 | 25600 ft | 455 kts | 113° |
| 2026-05-04 11:08 | 41.29700 | -4.84530 | 22581 ft | 465 kts | 113° |
| 2026-05-04 11:10 | 41.21443 | -4.56915 | 19659 ft | 453 kts | 113° |
| 2026-05-04 11:12 | 41.13573 | -4.30859 | 16789 ft | 412 kts | 114° |
| 2026-05-04 11:12 | 41.12497 | -4.27325 | 16417 ft | 416 kts | 114° |
| 2026-05-04 11:12 | 41.11410 | -4.23753 | 16032 ft | 416 kts | 114° |
| 2026-05-04 11:12 | 41.10347 | -4.20259 | 15628 ft | 402 kts | 114° |
| 2026-05-04 11:13 | 41.09316 | -4.16877 | 15256 ft | 390 kts | 114° |
| 2026-05-04 11:13 | 41.08320 | -4.13613 | 14901 ft | 376 kts | 114° |
| 2026-05-04 11:13 | 41.07353 | -4.10453 | 14550 ft | 363 kts | 114° |
| 2026-05-04 11:13 | 41.06418 | -4.07398 | 14225 ft | 353 kts | 114° |
| 2026-05-04 11:14 | 41.04344 | -4.00640 | 13436 ft | 329 kts | 114° |
| 2026-05-04 11:16 | 40.98139 | -3.80498 | 11821 ft | 284 kts | 115° |
| 2026-05-04 11:16 | 40.97689 | -3.77958 | 11601 ft | 286 kts | 96° |
| 2026-05-04 11:16 | 40.97617 | -3.75586 | 11383 ft | 285 kts | 95° |
| 2026-05-04 11:17 | 40.97523 | -3.72973 | 11093 ft | 284 kts | 95° |
| 2026-05-04 11:17 | 40.97403 | -3.70328 | 10632 ft | 288 kts | 96° |
| 2026-05-04 11:19 | 40.91480 | -3.57649 | 9365 ft | 233 kts | 184° |
| 2026-05-04 11:19 | 40.89855 | -3.57651 | 9056 ft | 234 kts | 184° |
| 2026-05-04 11:19 | 40.88219 | -3.57576 | 8745 ft | 237 kts | 177° |
| 2026-05-04 11:19 | 40.86574 | -3.57286 | 8426 ft | 240 kts | 175° |
| 2026-05-04 11:20 | 40.84910 | -3.56974 | 8117 ft | 242 kts | 176° |
| 2026-05-04 11:20 | 40.83256 | -3.56673 | 7808 ft | 238 kts | 176° |
| 2026-05-04 11:20 | 40.81656 | -3.56327 | 7498 ft | 234 kts | 174° |
| 2026-05-04 11:20 | 40.80057 | -3.56075 | 7171 ft | 228 kts | 181° |
| 2026-05-04 11:22 | 40.69869 | -3.56029 | 5266 ft | 202 kts | 185° |
| 2026-05-04 11:22 | 40.68482 | -3.56023 | 4978 ft | 195 kts | 184° |
| 2026-05-04 11:23 | 40.67166 | -3.56015 | 4735 ft | 185 kts | 184° |
| 2026-05-04 11:23 | 40.65914 | -3.56007 | 4499 ft | 176 kts | 186° |
| 2026-05-04 11:24 | 40.59510 | -3.55971 | 3154 ft | 145 kts | 184° |
| 2026-05-04 11:25 | 40.58510 | -3.55981 | 3005 ft | 141 kts | 183° |
| 2026-05-04 11:25 | 40.57522 | -3.55957 | 2855 ft | 143 kts | 182° |
| 2026-05-04 11:25 | 40.56525 | -3.55942 | 2659 ft | 146 kts | 184° |
| 2026-05-04 11:26 | 40.54492 | -3.55919 | 2288 ft | 146 kts | 190° |
| 2026-05-04 11:27 | 40.50132 | -3.56147 | 1983 ft | 29 kts | 182° |
| 2026-05-04 11:28 | 40.49936 | -3.56150 | 1979 ft | 27 kts | 181° |
| 2026-05-04 11:28 | 40.49752 | -3.56148 | 1979 ft | 26 kts | 180° |
| 2026-05-04 11:28 | 40.49581 | -3.56149 | 1979 ft | 24 kts | 179° |
| 2026-05-04 11:28 | 40.49420 | -3.56147 | 1983 ft | 23 kts | 178° |
| 2026-05-04 11:29 | 40.49264 | -3.56145 | 1979 ft | 22 kts | 178° |
| 2026-05-04 11:29 | 40.49113 | -3.56144 | 1979 ft | 21 kts | 179° |
| 2026-05-04 11:29 | 40.48966 | -3.56143 | 1982 ft | 21 kts | 182° |
| 2026-05-04 11:29 | 40.48824 | -3.56141 | 1979 ft | 20 kts | 173° |
| 2026-05-04 11:31 | 40.48766 | -3.57053 | 1983 ft | 20 kts | 269° |
| 2026-05-04 11:33 | 40.48561 | -3.57904 | 1981 ft | 14 kts | 159° |
| 2026-05-04 11:33 | 40.48478 | -3.57840 | 1981 ft | 14 kts | 147° |
| 2026-05-04 11:33 | 40.48398 | -3.57779 | 1980 ft | 13 kts | 150° |
| 2026-05-04 11:34 | 40.48325 | -3.57708 | 1979 ft | 14 kts | 142° |
| 2026-05-04 11:34 | 40.48245 | -3.57625 | 1979 ft | 16 kts | 140° |
| 2026-05-04 11:34 | 40.48151 | -3.57534 | 1981 ft | 18 kts | 144° |
| 2026-05-04 11:34 | 40.48047 | -3.57428 | 1979 ft | 20 kts | 142° |
| 2026-05-04 11:35 | 40.47933 | -3.57312 | 1982 ft | 22 kts | 140° |
| 2026-05-04 11:35 | 40.47815 | -3.57190 | 1979 ft | 21 kts | 143° |
| 2026-05-04 11:35 | 40.47700 | -3.57073 | 1982 ft | 21 kts | 142° |
| 2026-05-04 11:35 | 40.47587 | -3.56959 | 1980 ft | 20 kts | 143° |
| 2026-05-04 11:36 | 40.47479 | -3.56847 | 1979 ft | 19 kts | 141° |
| 2026-05-04 11:36 | 40.47382 | -3.56791 | 1981 ft | 14 kts | 199° |
| 2026-05-04 11:36 | 40.47291 | -3.56774 | 1980 ft | 14 kts | 145° |
| 2026-05-04 11:36 | 40.47217 | -3.56699 | 1981 ft | 13 kts | 143° |
| 2026-05-04 11:37 | 40.47144 | -3.56629 | 1973 ft | 13 kts | 145° |
| 2026-05-04 11:37 | 40.47067 | -3.56573 | 1980 ft | 12 kts | 159° |
| 2026-05-04 11:37 | 40.46985 | -3.56545 | 1983 ft | 12 kts | 175° |
| 2026-05-04 11:37 | 40.46903 | -3.56557 | 1979 ft | 12 kts | 212° |
| 2026-05-04 11:38 | 40.46891 | -3.56632 | 1979 ft | 3 kts | 303° |
| 2026-05-04 11:38 | 40.46897 | -3.56640 | 1982 ft | 1 kts | 313° |
| 2026-05-04 11:38 | 40.46898 | -3.56641 | 1981 ft | 0 kts | 315° |
| 2026-05-04 11:38 | 40.46899 | -3.56643 | 1981 ft | 0 kts | 315° |
| 2026-05-04 11:39 | 40.46913 | -3.56656 | 1980 ft | 5 kts | 326° |
| 2026-05-04 11:39 | 40.46960 | -3.56684 | 1981 ft | 10 kts | 335° |
| 2026-05-04 11:40 | 40.47035 | -3.56884 | 1979 ft | 0 kts | 231° |